createdAt,value
2023-07-20T00:41:22.728Z,0.02
2023-07-20T00:45:54.786Z,0.01
2023-07-20T02:24:16.706Z,0.02
2023-07-20T02:31:40.830Z,0.03
2023-07-20T02:33:40.695Z,0.04
2023-07-20T02:39:02.676Z,0.06
2023-07-20T02:41:22.825Z,0.08
2023-07-20T02:43:29.292Z,0.1
2023-07-20T02:49:03.134Z,0.22
2023-07-20T02:51:29.349Z,0.3
2023-07-20T02:53:41.756Z,0.37
2023-07-20T02:55:40.534Z,0.43
2023-07-20T02:58:26.684Z,0.53
2023-07-20T03:00:59.008Z,0.77
2023-07-20T03:03:17.458Z,1.02
2023-07-20T03:05:22.297Z,1.32
2023-07-20T03:08:14.476Z,1.97
2023-07-20T03:10:52.796Z,2.69
2023-07-20T03:13:17.446Z,4.1
2023-07-20T03:15:28.279Z,4.78
2023-07-20T03:17:25.293Z,5.52
2023-07-20T03:20:09.695Z,6.89
2023-07-20T03:22:40.352Z,9.17
2023-07-20T03:24:56.584Z,12.18
2023-07-20T03:26:59.713Z,15.96
2023-07-20T03:29:50.059Z,22.97
2023-07-20T03:32:26.600Z,33.47
2023-07-20T03:34:49.277Z,40.7
2023-07-20T03:36:58.426Z,45.7
2023-07-20T03:38:53.723Z,48.22
2023-07-20T03:41:36.255Z,54.66
2023-07-20T03:44:05.195Z,68.96
2023-07-20T03:46:20.358Z,90
2023-07-20T03:48:21.548Z,109.32
2023-07-20T03:51:10.345Z,141.52
2023-07-20T03:53:45.216Z,162.08
2023-07-20T03:56:06.269Z,175.2
2023-07-20T03:58:13.698Z,189.7
2023-07-20T04:01:08.343Z,202.2
2023-07-20T04:03:50.128Z,227.5
2023-07-20T04:06:16.221Z,276.4
2023-07-20T04:08:29.674Z,347.5
2023-07-20T04:10:29.224Z,392.3
2023-07-20T04:13:16.094Z,447.8
2023-07-20T04:15:48.822Z,505.2
2023-07-20T04:18:08.274Z,565.6
2023-07-20T04:20:13.797Z,596.9
2023-07-20T04:23:06.900Z,628.3
2023-07-20T04:25:46.110Z,676.8
2023-07-20T04:28:11.612Z,717.7
2023-07-20T04:30:22.992Z,773.4
2023-07-20T04:32:20.910Z,858.5
2023-07-20T04:35:06.136Z,952.3
2023-07-20T04:37:37.497Z,1058.8
2023-07-20T04:39:55.301Z,1143
2023-07-20T04:41:59.257Z,1170.8
2023-07-20T04:44:50.465Z,1228.8
2023-07-20T04:47:28.048Z,1368.3
2023-07-20T04:49:52.249Z,1423.3
2023-07-20T04:52:01.613Z,1434.2
2023-07-20T04:53:57.817Z,1505.9
2023-07-20T04:56:41.331Z,1489.9
2023-07-20T04:58:52.428Z,1428.4
2023-07-20T05:00:49.594Z,1409.9
2023-07-20T05:03:34.208Z,1397.7
2023-07-20T05:06:04.404Z,1509.7
2023-07-20T05:08:21.391Z,1530.2
2023-07-20T05:10:24.544Z,1504
2023-07-20T05:13:15.242Z,1544.3
2023-07-20T05:15:52.050Z,1575.6
2023-07-20T05:18:15.026Z,1608.9
2023-07-20T05:20:24.378Z,1655
2023-07-20T05:22:19.926Z,1693
2023-07-20T05:25:02.685Z,1748
2023-07-20T05:27:31.441Z,1795
2023-07-20T05:29:46.817Z,1838
2023-07-20T05:31:48.350Z,1882
2023-07-20T05:34:37.188Z,1925
2023-07-20T05:37:14.576Z,1935
2023-07-20T05:39:33.649Z,1966
2023-07-20T05:41:41.183Z,1997
2023-07-20T05:44:36.133Z,2049
2023-07-20T05:47:17.305Z,2107
2023-07-20T05:49:44.580Z,2135
2023-07-20T05:51:58.016Z,2166
2023-07-20T05:53:58.290Z,2187
2023-07-20T05:56:44.349Z,2200
2023-07-20T05:59:17.603Z,2229
2023-07-20T06:01:37.213Z,2318
2023-07-20T06:03:43.047Z,2334
2023-07-20T06:06:36.092Z,2384
2023-07-20T06:09:15.556Z,2451
2023-07-20T06:11:41.125Z,2583
2023-07-20T06:13:52.849Z,2786
2023-07-20T06:15:50.984Z,2812
2023-07-20T06:18:36.365Z,2845
2023-07-20T06:21:07.858Z,3045
2023-07-20T06:23:25.561Z,2915
2023-07-20T06:25:29.646Z,3134
2023-07-20T06:28:20.919Z,3114
2023-07-20T06:30:58.368Z,2877
2023-07-20T06:33:22.282Z,2713
2023-07-20T06:35:32.188Z,2118
2023-07-20T06:37:28.356Z,1988
2023-07-20T06:44:57.745Z,3781
2023-07-20T06:46:59.633Z,3663
2023-07-20T06:49:49.197Z,3852
2023-07-20T06:52:24.999Z,4000
2023-07-20T06:58:49.858Z,4069
2023-07-20T07:01:31.920Z,3521
2023-07-20T07:03:59.849Z,3040
2023-07-20T07:06:14.165Z,3865
2023-07-20T07:08:14.600Z,4087
2023-07-20T07:11:02.625Z,4122
2023-07-20T07:13:36.638Z,4140
2023-07-20T07:15:56.920Z,3537
2023-07-20T07:18:03.587Z,3672
2023-07-20T07:21:03.008Z,4728
2023-07-20T07:23:37.648Z,3649
2023-07-20T07:26:03.947Z,2689
2023-07-20T07:28:16.675Z,3173
2023-07-20T07:30:15.431Z,3392
2023-07-20T07:33:01.583Z,4070
2023-07-20T07:35:34.250Z,4436
2023-07-20T07:38:04.332Z,3992
2023-07-20T07:39:57.223Z,4055
2023-07-20T07:42:49.527Z,5306
2023-07-20T07:45:28.140Z,4719
2023-07-20T07:47:52.811Z,3870
2023-07-20T07:50:03.608Z,3733
2023-07-20T07:52:00.798Z,4935
2023-07-20T07:54:45.232Z,5263
2023-07-20T07:57:15.843Z,5066
2023-07-20T07:59:32.869Z,3595
2023-07-20T08:01:35.976Z,3584
2023-07-20T08:04:26.352Z,3905
2023-07-20T08:07:03.130Z,3769
2023-07-20T08:09:25.991Z,3586
2023-07-20T08:11:35.057Z,3237
2023-07-20T08:13:30.511Z,3336
2023-07-20T08:16:13.255Z,3441
2023-07-20T08:18:42.320Z,3683
2023-07-20T08:20:57.106Z,4140
2023-07-20T08:22:58.525Z,3886
2023-07-20T08:25:47.222Z,3129
2023-07-20T08:28:21.574Z,2965
2023-07-20T08:30:42.857Z,3015
2023-07-20T08:32:50.235Z,3466
2023-07-20T08:35:44.754Z,3603
2023-07-20T08:38:25.748Z,3272
2023-07-20T08:40:52.884Z,2599
2023-07-20T08:43:06.278Z,2704
2023-07-20T08:45:05.983Z,3083
2023-07-20T08:47:53.008Z,4602
2023-07-20T08:50:26.072Z,4380
2023-07-20T08:52:45.272Z,4309
2023-07-20T08:54:50.922Z,4093
2023-07-20T08:57:43.834Z,3508
2023-07-20T09:00:22.884Z,4807
2023-07-20T09:02:48.663Z,7152
2023-07-20T09:04:59.983Z,7313
2023-07-20T09:06:57.803Z,6522
2023-07-20T09:09:43.115Z,6238
2023-07-20T09:12:14.568Z,6144
2023-07-20T09:14:32.200Z,6213
2023-07-20T09:16:36.313Z,4161
2023-07-20T09:19:26.992Z,3728
2023-07-20T09:22:04.600Z,4556
2023-07-20T09:24:28.345Z,5201
2023-07-20T09:26:37.956Z,4696
2023-07-20T09:28:34.146Z,4725
2023-07-20T09:31:17.595Z,4774
2023-07-20T09:36:11.676Z,4768
2023-07-20T09:40:56.053Z,3681
2023-07-20T09:43:31.114Z,3436
2023-07-20T09:55:06.033Z,2977
2023-07-20T09:57:21.620Z,2716
2023-07-20T09:59:20.907Z,2977
2023-07-20T10:02:08.741Z,3526
2023-07-20T10:04:42.859Z,4023
2023-07-20T10:07:04.669Z,5521
2023-07-20T10:09:09.049Z,5557
2023-07-20T10:12:15.525Z,5516
2023-07-20T10:14:43.026Z,5317
2023-07-20T10:17:09.281Z,5111
2023-07-20T10:19:21.726Z,5703
2023-07-20T10:24:06.542Z,3760
2023-07-20T10:26:40.417Z,3308
2023-07-20T10:28:57.303Z,4268
2023-07-20T10:31:02.047Z,4889
2023-07-20T10:33:54.012Z,4537
2023-07-20T10:36:32.545Z,3994
2023-07-20T10:38:56.865Z,3783
2023-07-20T10:41:07.613Z,3517
2023-07-20T10:43:04.868Z,3264
2023-07-20T10:45:49.290Z,4348
2023-07-20T10:48:19.905Z,3468
2023-07-20T10:50:36.726Z,3160
2023-07-20T10:52:39.770Z,3272
2023-07-20T10:55:30.097Z,3066
2023-07-20T10:58:06.601Z,2854
2023-07-20T11:00:28.962Z,2606
2023-07-20T11:02:38.045Z,2808
2023-07-20T11:04:33.335Z,3585
2023-07-20T11:07:16.028Z,4183
2023-07-20T11:09:45.703Z,4663
2023-07-20T11:11:59.918Z,4576
2023-07-20T11:14:01.314Z,3468
2023-07-20T11:16:50.027Z,2992
2023-07-20T11:22:00.235Z,2796
2023-07-20T11:23:53.313Z,3091
2023-07-20T11:26:48.111Z,4183
2023-07-20T11:29:31.875Z,4226
2023-07-20T11:31:56.131Z,4353
2023-07-20T11:38:56.047Z,3211
2023-07-20T11:41:29.225Z,3278
2023-07-20T11:43:48.659Z,3430
2023-07-20T11:45:54.507Z,3777
2023-07-20T11:48:47.564Z,4165
2023-07-20T11:51:26.367Z,4421
2023-07-20T11:53:51.717Z,4518
2023-07-20T11:56:03.362Z,4504
2023-07-20T11:58:01.210Z,4389
2023-07-20T12:00:46.338Z,4221
2023-07-20T12:03:17.823Z,4166
2023-07-20T12:05:41.532Z,4120
2023-07-20T12:07:39.301Z,4533
2023-07-20T12:10:30.673Z,4887
2023-07-20T12:13:08.213Z,6412
2023-07-20T12:15:31.928Z,5647
2023-07-20T12:17:41.944Z,5135
2023-07-20T12:19:38.080Z,4664
2023-07-20T12:22:21.476Z,4289
2023-07-20T12:24:51.110Z,4464
2023-07-20T12:27:07.174Z,4445
2023-07-20T12:29:09.362Z,4229
2023-07-20T12:31:58.964Z,4806
2023-07-20T12:34:34.824Z,4058
2023-07-20T12:36:56.896Z,3498
2023-07-20T12:39:05.145Z,3139
2023-07-20T12:40:59.247Z,3188
2023-07-20T12:43:41.068Z,3344
2023-07-20T12:46:09.031Z,3834
2023-07-20T12:48:23.202Z,5223
2023-07-20T12:50:23.856Z,3910
2023-07-20T12:53:11.617Z,4389
2023-07-20T12:55:45.536Z,4742
2023-07-20T12:58:05.875Z,4888
2023-07-20T13:00:12.267Z,5114
2023-07-20T13:10:24.905Z,5250
2023-07-20T13:12:24.037Z,6397
2023-07-20T13:15:09.940Z,4652
2023-07-20T13:17:42.298Z,5611
2023-07-20T13:20:00.696Z,6138
2023-07-20T13:22:05.557Z,6446
2023-07-20T13:24:57.577Z,6702
2023-07-20T13:27:35.757Z,6727
2023-07-20T13:30:00.240Z,6476
2023-07-20T13:32:10.442Z,6305
2023-07-20T13:34:08.173Z,6205
2023-07-20T13:36:51.398Z,6543
2023-07-20T13:39:21.739Z,4855
2023-07-20T13:41:38.241Z,3843
2023-07-20T13:43:41.194Z,3706
2023-07-20T13:49:12.719Z,4441
2023-07-20T13:51:30.637Z,4552
2023-07-20T13:58:16.234Z,4261
2023-07-20T14:00:44.875Z,4327
2023-07-20T14:07:49.579Z,4924
2023-07-20T14:10:24.103Z,6489
2023-07-20T14:12:45.022Z,4601
2023-07-20T14:14:52.320Z,3960
2023-07-20T14:17:46.955Z,3905
2023-07-20T14:20:27.631Z,4136
2023-07-20T14:22:54.066Z,4138
2023-07-20T14:27:07.169Z,3979
2023-07-20T14:29:53.703Z,4229
2023-07-20T14:34:47.425Z,4276
2023-07-20T14:36:51.746Z,4272
2023-07-20T14:39:44.784Z,4220
2023-07-20T14:42:23.981Z,4202
2023-07-20T14:44:49.335Z,4231
2023-07-20T14:47:13.230Z,4192
2023-07-20T14:48:58.671Z,4224
2023-07-20T14:51:43.831Z,4154
2023-07-20T14:54:15.118Z,3887
2023-07-20T14:56:32.855Z,3334
2023-07-20T14:58:36.846Z,3129
2023-07-20T15:01:28.122Z,3147
2023-07-20T15:04:05.711Z,3059
2023-07-20T15:06:29.365Z,2699
2023-07-20T15:08:39.301Z,2937
2023-07-20T15:10:35.573Z,2927
2023-07-20T15:13:18.674Z,3221
2023-07-20T15:15:29.752Z,3237
2023-07-20T15:17:26.997Z,3127
2023-07-20T15:20:11.484Z,3208
2023-07-20T15:22:42.513Z,3176
2023-07-20T15:24:59.505Z,3385
2023-07-20T15:29:53.498Z,2914
2023-07-20T15:34:53.416Z,3009
2023-07-20T15:37:02.841Z,2448
2023-07-20T15:38:58.753Z,2601
2023-07-20T15:41:41.580Z,2481
2023-07-20T15:44:10.277Z,2661
2023-07-20T15:46:25.843Z,2558
2023-07-20T15:48:27.085Z,2362
2023-07-20T15:51:15.968Z,2470
2023-07-20T15:53:51.173Z,2880
2023-07-20T15:56:12.632Z,2819
2023-07-20T15:58:20.097Z,2681
2023-07-20T16:01:15.174Z,2892
2023-07-20T16:03:55.787Z,2712
2023-07-20T16:06:23.086Z,2858
2023-07-20T16:08:36.547Z,3248
2023-07-20T16:10:36.374Z,3142
2023-07-20T16:13:23.536Z,2717
2023-07-20T16:15:56.781Z,2631
2023-07-20T16:18:16.466Z,2494
2023-07-20T16:20:22.323Z,2502
2023-07-20T16:23:15.472Z,2406
2023-07-20T16:25:55.022Z,2341
2023-07-20T16:28:20.705Z,2579
2023-07-20T16:30:32.492Z,2346
2023-07-20T16:32:30.698Z,2321
2023-07-20T16:35:16.151Z,2364
2023-07-20T16:38:12.813Z,2556
2023-07-20T16:40:05.535Z,2490
2023-07-20T16:42:09.920Z,2325
2023-07-20T16:45:01.158Z,2267
2023-07-20T16:47:38.771Z,2051
2023-07-20T16:50:02.698Z,1987
2023-07-20T16:52:12.891Z,1853
2023-07-20T16:56:52.402Z,2016
2023-07-20T16:59:22.378Z,2061
2023-07-20T17:01:38.538Z,1978
2023-07-20T17:03:41.094Z,1786
2023-07-20T17:06:30.855Z,1175
2023-07-20T17:09:06.835Z,1278.4
2023-07-20T17:11:28.900Z,1502.7
2023-07-20T17:13:37.295Z,1142.7
2023-07-20T17:15:31.929Z,1119.6
2023-07-20T17:18:13.908Z,1245.1
2023-07-20T17:22:56.463Z,1185.2
2023-07-20T17:30:19.317Z,1026.2
2023-07-20T17:32:39.777Z,1118.4
2023-07-20T17:34:46.579Z,1219.2
2023-07-20T17:44:59.651Z,1434.8
2023-07-20T17:49:45.040Z,1219.2
2023-07-20T17:52:17.405Z,1118
2023-07-20T17:54:36.130Z,1049.6
2023-07-20T17:56:41.027Z,997.4
2023-07-20T17:59:33.461Z,911.6
2023-07-20T18:02:12.018Z,875.2
2023-07-20T18:04:36.593Z,872.3
2023-07-20T18:06:47.396Z,850.2
2023-07-20T18:08:44.589Z,816.3
2023-07-20T18:11:28.984Z,762.2
2023-07-20T18:13:59.666Z,752.9
2023-07-20T18:16:16.735Z,732.1
2023-07-20T18:18:19.869Z,708.4
2023-07-20T18:21:10.170Z,714.2
2023-07-20T18:23:46.999Z,822.4
2023-07-20T18:26:09.906Z,808.3
2023-07-20T18:28:19.025Z,772.4
2023-07-20T18:30:14.563Z,713.6
2023-07-20T18:32:57.343Z,605.4
2023-07-20T18:35:25.786Z,536.4
2023-07-20T18:37:40.892Z,469.2
2023-07-20T18:39:42.493Z,427.3
2023-07-20T18:42:31.390Z,396.3
2023-07-20T18:45:06.507Z,401.9
2023-07-20T18:47:27.932Z,353.2
2023-07-20T18:49:35.342Z,314
2023-07-20T18:52:30.119Z,292.2
2023-07-20T18:55:11.190Z,271.7
2023-07-20T18:57:38.542Z,250.8
2023-07-20T18:59:52.021Z,235.8
2023-07-20T19:01:51.889Z,219.4
2023-07-20T19:04:39.047Z,202.2
2023-07-20T19:07:12.434Z,180.1
2023-07-20T19:09:31.966Z,161.92
2023-07-20T19:14:31.123Z,130.68
2023-07-20T19:17:10.055Z,109.68
2023-07-20T19:19:35.680Z,96.64
2023-07-20T19:21:47.398Z,84.36
2023-07-20T19:23:45.384Z,69.66
2023-07-20T19:26:30.282Z,48.94
2023-07-20T19:29:01.871Z,37.37
2023-07-20T19:31:19.497Z,29.19
2023-07-20T19:33:23.538Z,22.18
2023-07-20T19:36:14.813Z,14.53
2023-07-20T19:38:52.307Z,11.68
2023-07-20T19:41:15.871Z,9.69
2023-07-20T19:43:25.879Z,7.84
2023-07-20T19:45:21.951Z,6.32
2023-07-20T19:48:05.537Z,4.69
2023-07-20T19:50:35.462Z,3.16
2023-07-20T19:54:53.462Z,1.74
2023-07-20T19:57:43.161Z,1.18
2023-07-20T20:00:19.173Z,0.85
2023-07-20T20:06:44.248Z,0.4
2023-07-20T20:09:26.143Z,0.26
2023-07-20T20:11:54.189Z,0.19
2023-07-20T20:14:08.597Z,0.14
2023-07-20T20:16:08.715Z,0.11
2023-07-20T20:18:56.612Z,0.08
2023-07-20T20:21:30.940Z,0.06
2023-07-20T20:23:51.434Z,0.05
2023-07-20T20:25:58.077Z,0.04
2023-07-20T20:28:52.199Z,0.03
2023-07-20T20:33:59.116Z,0.02
2023-07-20T20:57:58.529Z,0.01
2023-07-20T21:30:52.511Z,0.02
2023-07-20T21:33:41.212Z,0.01
2023-07-20T22:14:52.540Z,0.02
2023-07-20T22:41:42.784Z,0.01
2023-07-20T23:14:57.181Z,0.02
2023-07-20T23:17:03.625Z,0.01
2023-07-20T23:46:50.308Z,0.02
2023-07-20T23:53:42.215Z,0.01
